createdAt,value
2023-11-23T00:00:11.923Z,4.07
2023-11-23T00:02:40.083Z,4.65
2023-11-23T00:05:09.159Z,7.68
2023-11-23T00:07:36.359Z,8.55
2023-11-23T00:10:04.198Z,14.00
2023-11-23T00:12:31.284Z,8.45
2023-11-23T00:14:58.133Z,7.28
2023-11-23T00:17:24.962Z,6.57
2023-11-23T00:19:51.756Z,11.15
2023-11-23T00:22:18.586Z,8.32
2023-11-23T00:24:46.330Z,10.98
2023-11-23T00:27:16.101Z,11.60
2023-11-23T00:29:43.366Z,6.38
2023-11-23T00:32:10.204Z,8.82
2023-11-23T00:34:37.053Z,7.30
2023-11-23T00:37:04.169Z,9.20
2023-11-23T00:39:31.010Z,10.48
2023-11-23T00:41:57.841Z,10.85
2023-11-23T00:44:24.832Z,9.27
2023-11-23T00:46:52.522Z,10.45
2023-11-23T00:49:20.499Z,8.80
2023-11-23T00:51:47.299Z,10.15
2023-11-23T00:54:14.142Z,9.80
2023-11-23T00:56:41.763Z,10.82
2023-11-23T00:59:08.622Z,11.32
2023-11-23T01:01:35.533Z,15.55
2023-11-23T01:04:02.689Z,14.00
2023-11-23T01:06:29.552Z,14.82
2023-11-23T01:08:56.382Z,14.05
2023-11-23T01:11:25.077Z,13.30
2023-11-23T01:13:52.046Z,11.57
2023-11-23T01:16:18.936Z,13.70
2023-11-23T01:18:45.921Z,14.65
2023-11-23T01:21:12.781Z,20.13
2023-11-23T01:23:39.643Z,18.20
2023-11-23T01:26:06.991Z,15.75
2023-11-23T01:28:33.799Z,14.50
2023-11-23T01:31:00.615Z,15.00
2023-11-23T01:33:27.541Z,14.00
2023-11-23T01:35:54.502Z,13.02
2023-11-23T01:38:21.757Z,17.88
2023-11-23T01:40:48.621Z,19.73
2023-11-23T01:43:20.479Z,15.43
2023-11-23T01:45:47.555Z,13.73
2023-11-23T01:48:16.027Z,14.88
2023-11-23T01:50:44.153Z,15.18
2023-11-23T01:53:12.820Z,15.90
2023-11-23T01:55:39.778Z,17.65
2023-11-23T01:58:09.834Z,20.63
2023-11-23T02:00:37.944Z,18.10
2023-11-23T02:03:06.031Z,17.27
2023-11-23T02:05:33.007Z,15.30
2023-11-23T02:07:59.789Z,17.35
2023-11-23T02:10:26.717Z,17.98
2023-11-23T02:12:55.077Z,17.73
2023-11-23T02:15:23.214Z,17.92
2023-11-23T02:18:04.885Z,20.48
2023-11-23T02:20:32.626Z,22.65
2023-11-23T02:23:01.056Z,19.63
2023-11-23T02:25:28.684Z,24.63
2023-11-23T02:27:55.627Z,22.13
2023-11-23T02:30:22.994Z,19.45
2023-11-23T02:32:51.322Z,21.70
2023-11-23T02:35:21.564Z,21.30
2023-11-23T02:37:48.584Z,22.15
2023-11-23T02:40:16.096Z,25.20
2023-11-23T02:42:45.751Z,23.20
2023-11-23T02:45:13.967Z,24.17
2023-11-23T02:47:41.024Z,21.08
2023-11-23T02:50:08.328Z,24.58
2023-11-23T02:52:35.186Z,22.83
2023-11-23T02:55:02.054Z,22.15
2023-11-23T02:57:28.946Z,23.38
2023-11-23T02:59:56.547Z,25.85
2023-11-23T03:02:23.469Z,20.58
2023-11-23T03:04:50.357Z,20.90
2023-11-23T03:07:18.783Z,23.80
2023-11-23T03:09:45.626Z,27.85
2023-11-23T03:12:12.526Z,24.77
2023-11-23T03:14:39.499Z,22.83
2023-11-23T03:17:07.532Z,25.67
2023-11-23T03:19:34.406Z,22.50
2023-11-23T03:22:01.292Z,23.40
2023-11-23T03:24:28.231Z,24.00
2023-11-23T03:26:55.148Z,21.73
2023-11-23T03:29:22.034Z,22.23
2023-11-23T03:31:48.978Z,25.55
2023-11-23T03:34:15.987Z,23.17
2023-11-23T03:36:42.845Z,24.25
2023-11-23T03:39:09.825Z,26.42
2023-11-23T03:41:36.712Z,25.17
2023-11-23T03:44:03.529Z,23.88
2023-11-23T03:46:30.346Z,22.48
2023-11-23T03:48:57.509Z,22.17
2023-11-23T03:51:27.600Z,20.20
2023-11-23T03:53:55.159Z,20.15
2023-11-23T03:56:22.070Z,23.30
2023-11-23T03:58:49.076Z,21.10
2023-11-23T04:01:16.062Z,21.85
2023-11-23T04:03:46.297Z,22.23
2023-11-23T04:06:14.209Z,20.35
2023-11-23T04:08:41.415Z,22.40
2023-11-23T04:11:10.529Z,22.23
2023-11-23T04:13:37.481Z,25.42
2023-11-23T04:16:04.816Z,25.30
2023-11-23T04:18:31.738Z,25.23
2023-11-23T04:20:58.712Z,23.38
2023-11-23T04:23:25.584Z,22.42
2023-11-23T04:25:52.442Z,24.08
2023-11-23T04:28:19.345Z,22.95
2023-11-23T04:30:46.267Z,24.05
2023-11-23T04:33:13.191Z,23.25
2023-11-23T04:35:40.147Z,22.58
2023-11-23T04:38:06.993Z,25.70
2023-11-23T04:40:33.931Z,21.70
2023-11-23T04:43:00.797Z,21.52
2023-11-23T04:45:27.711Z,22.83
2023-11-23T04:47:54.778Z,22.77
2023-11-23T04:50:22.630Z,22.42
2023-11-23T04:52:49.744Z,22.45
2023-11-23T04:55:16.628Z,22.25
2023-11-23T04:57:43.446Z,21.95
2023-11-23T05:00:12.078Z,20.40
2023-11-23T05:02:44.230Z,25.63
2023-11-23T05:05:14.514Z,18.65
2023-11-23T05:07:41.695Z,26.73
2023-11-23T05:10:09.584Z,18.38
2023-11-23T05:12:37.693Z,17.90
2023-11-23T05:15:06.216Z,18.25
2023-11-23T05:17:33.592Z,18.52
2023-11-23T05:20:00.819Z,16.30
2023-11-23T05:22:27.815Z,21.60
2023-11-23T05:24:54.734Z,19.42
2023-11-23T05:27:22.146Z,16.77
2023-11-23T05:29:51.502Z,21.23
2023-11-23T05:32:19.437Z,21.90
2023-11-23T05:34:46.563Z,17.55
2023-11-23T05:37:13.519Z,19.58
2023-11-23T05:39:43.584Z,16.80
2023-11-23T05:42:11.974Z,17.45
2023-11-23T05:44:39.137Z,19.80
2023-11-23T05:47:06.406Z,16.48
2023-11-23T05:49:33.304Z,20.00
2023-11-23T05:52:00.311Z,18.52
2023-11-23T05:54:27.348Z,18.27
2023-11-23T05:56:54.279Z,17.33
2023-11-23T05:59:21.654Z,18.58
2023-11-23T06:01:48.647Z,20.05
2023-11-23T06:04:15.695Z,19.10
2023-11-23T06:06:42.643Z,22.77
2023-11-23T06:09:12.372Z,19.42
2023-11-23T06:11:39.305Z,19.13
2023-11-23T06:14:06.301Z,18.55
2023-11-23T06:16:33.212Z,18.88
2023-11-23T06:19:03.484Z,20.05
2023-11-23T06:21:31.413Z,20.95
2023-11-23T06:23:59.624Z,22.33
2023-11-23T06:26:26.611Z,18.65
2023-11-23T06:28:53.436Z,22.05
2023-11-23T06:31:20.386Z,22.67
2023-11-23T06:33:47.418Z,21.00
2023-11-23T06:36:14.388Z,25.67
2023-11-23T06:38:41.334Z,24.58
2023-11-23T06:41:21.718Z,23.73
2023-11-23T06:43:50.014Z,20.80
2023-11-23T06:46:21.367Z,26.80
2023-11-23T06:48:48.507Z,22.17
2023-11-23T06:51:15.539Z,17.95
2023-11-23T06:53:46.309Z,21.98
2023-11-23T06:56:17.629Z,23.33
2023-11-23T06:58:47.672Z,18.45
2023-11-23T07:01:18.430Z,23.48
2023-11-23T07:03:45.517Z,26.63
2023-11-23T07:06:14.830Z,21.88
2023-11-23T07:08:41.896Z,21.70
2023-11-23T07:11:09.195Z,21.35
2023-11-23T07:13:36.690Z,23.23
2023-11-23T07:16:04.242Z,20.42
2023-11-23T07:18:31.421Z,18.65
2023-11-23T07:20:58.722Z,21.83
2023-11-23T07:23:26.334Z,21.88
2023-11-23T07:25:53.916Z,20.00
2023-11-23T07:28:28.202Z,19.98
2023-11-23T07:30:58.591Z,22.35
2023-11-23T07:33:30.394Z,22.08
2023-11-23T07:35:57.738Z,23.17
2023-11-23T07:38:24.602Z,21.65
2023-11-23T07:40:51.459Z,19.98
2023-11-23T07:43:18.354Z,23.13
2023-11-23T07:45:45.197Z,24.50
2023-11-23T07:48:15.135Z,20.20
2023-11-23T07:50:42.267Z,24.10
2023-11-23T07:53:09.291Z,20.50
2023-11-23T07:55:36.358Z,20.83
2023-11-23T07:58:03.257Z,25.80
2023-11-23T08:00:30.537Z,20.15
2023-11-23T08:02:57.564Z,19.15
2023-11-23T08:05:24.822Z,19.90
2023-11-23T08:07:51.753Z,19.95
2023-11-23T08:10:18.692Z,20.17
2023-11-23T08:12:45.755Z,21.00
2023-11-23T08:15:13.940Z,20.60
2023-11-23T08:17:50.993Z,19.58
2023-11-23T08:20:27.754Z,18.50
2023-11-23T08:22:54.891Z,24.77
2023-11-23T08:25:22.147Z,20.80
2023-11-23T08:27:48.973Z,20.30
2023-11-23T08:30:16.762Z,20.83
2023-11-23T08:32:43.797Z,22.00
2023-11-23T08:35:10.830Z,16.75
2023-11-23T08:37:38.396Z,15.25
2023-11-23T08:40:07.862Z,18.08
2023-11-23T08:42:34.850Z,18.70
2023-11-23T08:45:02.143Z,16.88
2023-11-23T08:47:29.200Z,17.63
2023-11-23T08:49:56.542Z,21.80
2023-11-23T08:52:23.713Z,21.17
2023-11-23T08:54:50.754Z,16.38
2023-11-23T08:57:17.834Z,23.50
2023-11-23T08:59:44.722Z,17.77
2023-11-23T09:02:19.836Z,15.00
2023-11-23T09:04:49.584Z,18.00
2023-11-23T09:07:17.232Z,17.83
2023-11-23T09:09:44.197Z,17.95
2023-11-23T09:12:11.107Z,18.75
2023-11-23T09:14:46.850Z,18.83
2023-11-23T09:17:20.352Z,18.90
2023-11-23T09:19:48.287Z,18.08
2023-11-23T09:22:15.410Z,20.33
2023-11-23T09:24:42.421Z,23.55
2023-11-23T09:27:10.642Z,18.33
2023-11-23T09:29:37.723Z,15.50
2023-11-23T09:32:06.254Z,14.82
2023-11-23T09:34:33.076Z,18.73
2023-11-23T09:36:59.918Z,15.13
2023-11-23T09:39:29.024Z,20.05
2023-11-23T09:41:58.867Z,16.45
2023-11-23T09:44:29.426Z,17.63
2023-11-23T09:46:57.513Z,13.40
2023-11-23T09:49:25.808Z,20.85
2023-11-23T09:51:56.648Z,14.90
2023-11-23T09:54:27.642Z,16.88
2023-11-23T09:56:55.075Z,16.08
2023-11-23T09:59:22.586Z,16.90
2023-11-23T10:01:54.094Z,18.63
2023-11-23T10:04:22.000Z,13.40
2023-11-23T10:06:48.885Z,13.57
2023-11-23T10:09:17.150Z,14.80
2023-11-23T10:11:44.407Z,14.82
2023-11-23T10:14:12.737Z,14.30
2023-11-23T10:16:39.797Z,16.17
2023-11-23T10:19:06.908Z,17.17
2023-11-23T10:21:33.872Z,14.13
2023-11-23T10:24:09.175Z,14.82
2023-11-23T10:26:36.371Z,18.75
2023-11-23T10:29:03.601Z,16.25
2023-11-23T10:31:31.895Z,14.18
2023-11-23T10:34:00.321Z,13.70
2023-11-23T10:36:28.635Z,12.82
2023-11-23T10:39:01.256Z,15.50
2023-11-23T10:41:28.510Z,14.20
2023-11-23T10:43:58.881Z,14.50
2023-11-23T10:46:26.070Z,15.77
2023-11-23T10:48:54.464Z,13.55
2023-11-23T10:51:25.540Z,13.23
2023-11-23T10:53:52.377Z,15.32
2023-11-23T10:56:24.047Z,15.98
2023-11-23T10:58:55.241Z,10.35
2023-11-23T11:01:25.019Z,11.07
2023-11-23T11:03:52.223Z,10.85
2023-11-23T11:06:22.750Z,14.00
2023-11-23T11:08:50.644Z,12.52
2023-11-23T11:11:23.139Z,11.88
2023-11-23T11:13:50.418Z,11.20
2023-11-23T11:16:18.782Z,13.30
2023-11-23T11:18:53.826Z,10.65
2023-11-23T11:21:22.202Z,13.30
2023-11-23T11:23:52.631Z,8.88
2023-11-23T11:26:26.137Z,17.65
2023-11-23T11:29:01.826Z,11.43
2023-11-23T11:31:34.989Z,12.15
2023-11-23T11:34:03.324Z,13.35
2023-11-23T11:36:32.001Z,10.07
2023-11-23T11:39:01.417Z,6.90
2023-11-23T11:41:31.042Z,9.65
2023-11-23T11:43:59.517Z,9.52
2023-11-23T11:46:29.576Z,6.30
2023-11-23T11:49:00.124Z,6.32
2023-11-23T11:51:34.155Z,7.55
2023-11-23T11:54:02.114Z,5.40
2023-11-23T11:56:29.308Z,6.97
2023-11-23T11:58:56.314Z,13.18
2023-11-23T12:01:23.503Z,10.25
2023-11-23T12:03:50.902Z,5.03
2023-11-23T12:06:22.304Z,15.25
2023-11-23T12:08:50.866Z,6.88
2023-11-23T12:11:32.045Z,5.68
2023-11-23T12:14:00.573Z,11.07
2023-11-23T12:16:36.438Z,10.27
2023-11-23T12:19:22.122Z,7.13
2023-11-23T12:21:56.909Z,6.63
2023-11-23T12:24:26.580Z,7.47
2023-11-23T12:26:54.412Z,5.90
2023-11-23T12:29:30.098Z,11.27
2023-11-23T12:32:01.031Z,10.27
2023-11-23T12:34:28.214Z,5.40
2023-11-23T12:36:58.957Z,10.73
2023-11-23T12:39:26.372Z,4.22
2023-11-23T12:41:55.389Z,4.95
2023-11-23T12:44:22.919Z,8.43
2023-11-23T12:46:50.498Z,10.98
2023-11-23T12:49:18.597Z,5.32
2023-11-23T12:51:48.253Z,5.10
2023-11-23T12:54:16.009Z,4.40
2023-11-23T12:56:43.149Z,4.80
2023-11-23T12:59:10.010Z,6.78
2023-11-23T13:01:39.669Z,7.63
2023-11-23T13:04:09.107Z,6.25
2023-11-23T13:06:37.389Z,5.22
2023-11-23T13:09:05.371Z,7.80
2023-11-23T13:11:32.929Z,11.15
2023-11-23T13:13:59.823Z,10.02
2023-11-23T13:16:26.657Z,10.30
2023-11-23T13:19:10.708Z,6.30
2023-11-23T13:21:40.553Z,8.90
2023-11-23T13:24:08.863Z,7.45
2023-11-23T13:26:36.258Z,9.32
2023-11-23T13:29:03.096Z,9.88
2023-11-23T13:31:29.924Z,9.30
2023-11-23T13:33:57.058Z,7.25
2023-11-23T13:36:24.108Z,10.27
2023-11-23T13:38:51.516Z,10.35
2023-11-23T13:41:19.623Z,10.40
2023-11-23T13:43:46.753Z,8.93
2023-11-23T13:46:15.511Z,9.10
2023-11-23T13:48:44.431Z,7.07
2023-11-23T13:51:13.887Z,9.75
2023-11-23T13:53:40.878Z,8.82
2023-11-23T13:56:11.225Z,9.57
2023-11-23T13:58:38.260Z,7.15
2023-11-23T14:01:05.140Z,10.57
2023-11-23T14:03:41.806Z,9.38
2023-11-23T14:06:09.184Z,10.38
2023-11-23T14:08:37.323Z,9.82
2023-11-23T14:11:04.680Z,5.68
2023-11-23T14:13:31.818Z,11.57
2023-11-23T14:15:59.044Z,4.63
2023-11-23T14:18:26.098Z,7.45
2023-11-23T14:20:53.023Z,8.95
2023-11-23T14:23:19.901Z,14.18
2023-11-23T14:25:46.932Z,8.38
2023-11-23T14:28:18.953Z,6.60
2023-11-23T14:30:46.442Z,11.20
2023-11-23T14:33:15.110Z,8.70
2023-11-23T14:35:42.388Z,8.90
2023-11-23T14:38:12.040Z,7.10
2023-11-23T14:40:39.471Z,7.65
2023-11-23T14:43:08.332Z,10.98
2023-11-23T14:45:35.313Z,7.45
2023-11-23T14:48:04.309Z,12.18
2023-11-23T14:50:31.212Z,15.70
2023-11-23T14:52:59.703Z,9.73
2023-11-23T14:55:26.887Z,10.38
2023-11-23T14:57:53.772Z,8.50
2023-11-23T15:00:20.826Z,9.82
2023-11-23T15:02:51.104Z,9.52
2023-11-23T15:05:19.727Z,11.88
2023-11-23T15:07:47.201Z,8.35
2023-11-23T15:10:19.890Z,11.70
2023-11-23T15:12:52.623Z,11.27
2023-11-23T15:15:20.900Z,10.10
2023-11-23T15:17:50.101Z,8.52
2023-11-23T15:20:17.509Z,11.38
2023-11-23T15:22:44.402Z,9.80
2023-11-23T15:25:11.830Z,9.63
2023-11-23T15:27:41.033Z,12.82
2023-11-23T15:30:10.558Z,10.07
2023-11-23T15:32:40.657Z,9.80
2023-11-23T15:35:08.944Z,15.90
2023-11-23T15:37:37.254Z,13.00
2023-11-23T15:40:09.741Z,10.20
2023-11-23T15:42:38.130Z,10.10
2023-11-23T15:45:06.194Z,14.60
2023-11-23T15:47:33.161Z,14.77
2023-11-23T15:50:00.008Z,10.35
2023-11-23T15:52:26.866Z,14.32
2023-11-23T15:54:53.696Z,6.95
2023-11-23T15:57:20.583Z,12.90
2023-11-23T15:59:47.474Z,8.38
2023-11-23T16:02:14.837Z,9.88
2023-11-23T16:04:43.159Z,9.32
2023-11-23T16:07:10.102Z,11.00
2023-11-23T16:09:38.161Z,10.57
2023-11-23T16:12:05.402Z,13.00
2023-11-23T16:14:32.339Z,9.77
2023-11-23T16:16:59.788Z,10.00
2023-11-23T16:19:28.692Z,9.52
2023-11-23T16:21:55.595Z,11.65
2023-11-23T16:24:22.740Z,10.48
2023-11-23T16:26:50.512Z,9.48
2023-11-23T16:29:17.386Z,12.40
2023-11-23T16:31:45.925Z,8.90
2023-11-23T16:34:14.898Z,12.80
2023-11-23T16:36:43.051Z,9.98
2023-11-23T16:39:15.673Z,10.50
2023-11-23T16:41:42.703Z,10.93
2023-11-23T16:44:11.976Z,8.88
2023-11-23T16:46:39.310Z,8.80
2023-11-23T16:49:06.732Z,12.60
2023-11-23T16:51:34.049Z,11.98
2023-11-23T16:54:01.054Z,10.15
2023-11-23T16:56:27.923Z,8.60
2023-11-23T16:58:54.769Z,10.00
2023-11-23T17:01:21.648Z,9.27
2023-11-23T17:03:51.377Z,8.18
2023-11-23T17:06:18.672Z,8.32
2023-11-23T17:08:47.017Z,8.15
2023-11-23T17:11:14.992Z,10.45
2023-11-23T17:13:41.853Z,13.13
2023-11-23T17:16:09.622Z,10.85
2023-11-23T17:18:36.611Z,7.45
2023-11-23T17:21:03.587Z,7.47
2023-11-23T17:23:31.632Z,5.85
2023-11-23T17:25:58.490Z,6.57
2023-11-23T17:28:25.339Z,5.00
2023-11-23T17:30:52.245Z,7.00
2023-11-23T17:33:20.556Z,7.53
2023-11-23T17:35:47.978Z,7.22
2023-11-23T17:38:17.317Z,5.82
2023-11-23T17:40:44.329Z,10.63
2023-11-23T17:43:11.204Z,5.72
2023-11-23T17:45:38.089Z,6.63
2023-11-23T17:48:05.472Z,3.72
2023-11-23T17:50:32.422Z,5.13
2023-11-23T17:52:59.636Z,3.22
2023-11-23T17:55:28.266Z,6.30
2023-11-23T17:57:55.822Z,7.25
2023-11-23T18:00:23.096Z,4.20
2023-11-23T18:02:50.105Z,4.45
2023-11-23T18:05:19.013Z,5.40
2023-11-23T18:07:45.857Z,5.53
2023-11-23T18:10:15.472Z,3.53
2023-11-23T18:12:43.574Z,2.88
2023-11-23T18:15:11.579Z,4.18
2023-11-23T18:17:38.901Z,6.72
2023-11-23T18:20:06.473Z,2.72
2023-11-23T18:22:33.474Z,5.80
2023-11-23T18:25:01.369Z,5.03
2023-11-23T18:27:28.393Z,6.00
2023-11-23T18:29:55.228Z,3.97
2023-11-23T18:32:22.055Z,5.40
2023-11-23T18:34:49.765Z,6.28
2023-11-23T18:37:16.656Z,5.78
2023-11-23T18:39:43.623Z,5.65
2023-11-23T18:42:12.418Z,4.47
2023-11-23T18:44:41.597Z,7.80
2023-11-23T18:47:08.527Z,3.80
2023-11-23T18:49:35.384Z,6.13
2023-11-23T18:52:03.940Z,5.22
2023-11-23T18:54:31.122Z,4.50
2023-11-23T18:56:58.120Z,3.25
2023-11-23T18:59:25.605Z,5.20
2023-11-23T19:01:55.540Z,2.47
2023-11-23T19:04:23.397Z,1.45
2023-11-23T19:06:53.388Z,1.77
2023-11-23T19:09:22.887Z,2.88
2023-11-23T19:11:51.102Z,6.80
2023-11-23T19:14:17.973Z,5.85
2023-11-23T19:16:45.020Z,2.53
2023-11-23T19:19:12.692Z,2.85
2023-11-23T19:21:40.554Z,6.32
2023-11-23T19:24:11.278Z,6.63
2023-11-23T19:26:38.377Z,5.45
2023-11-23T19:29:05.792Z,2.65
2023-11-23T19:31:35.572Z,5.63
2023-11-23T19:34:04.454Z,5.38
2023-11-23T19:36:31.879Z,5.35
2023-11-23T19:38:59.206Z,5.78
2023-11-23T19:41:27.074Z,7.55
2023-11-23T19:43:54.518Z,4.97
2023-11-23T19:46:21.878Z,7.35
2023-11-23T19:48:49.355Z,5.10
2023-11-23T19:51:27.328Z,3.08
2023-11-23T19:53:56.992Z,5.55
2023-11-23T19:56:26.098Z,6.35
2023-11-23T19:58:53.278Z,5.57
2023-11-23T20:01:21.192Z,4.07
2023-11-23T20:03:48.249Z,5.80
2023-11-23T20:06:15.264Z,4.78
2023-11-23T20:08:42.695Z,7.20
2023-11-23T20:11:09.602Z,7.10
2023-11-23T20:13:36.426Z,4.65
2023-11-23T20:16:03.690Z,9.45
2023-11-23T20:18:30.777Z,9.98
2023-11-23T20:20:57.783Z,5.68
2023-11-23T20:23:24.700Z,6.97
2023-11-23T20:25:51.562Z,5.72
2023-11-23T20:28:18.618Z,9.25
2023-11-23T20:30:45.651Z,5.50
2023-11-23T20:33:15.107Z,6.90
2023-11-23T20:35:44.126Z,6.13
2023-11-23T20:38:11.031Z,8.65
2023-11-23T20:40:38.050Z,7.15
2023-11-23T20:43:04.998Z,6.88
2023-11-23T20:45:31.858Z,5.53
2023-11-23T20:47:58.771Z,7.75
2023-11-23T20:50:25.790Z,6.90
2023-11-23T20:52:52.953Z,6.75
2023-11-23T20:55:20.779Z,8.48
2023-11-23T20:57:48.808Z,14.38
2023-11-23T21:00:17.332Z,4.78
2023-11-23T21:02:45.061Z,9.02
2023-11-23T21:05:13.191Z,11.35
2023-11-23T21:07:41.122Z,12.43
2023-11-23T21:10:09.051Z,8.70
2023-11-23T21:12:36.389Z,11.32
2023-11-23T21:15:05.167Z,8.20
2023-11-23T21:17:34.148Z,6.90
2023-11-23T21:20:01.111Z,2.72
2023-11-23T21:22:28.374Z,10.77
2023-11-23T21:24:55.302Z,9.80
2023-11-23T21:27:28.135Z,10.57
2023-11-23T21:29:54.955Z,7.95
2023-11-23T21:32:21.959Z,6.32
2023-11-23T21:34:51.675Z,13.70
2023-11-23T21:37:18.884Z,11.57
2023-11-23T21:39:45.836Z,10.73
2023-11-23T21:42:12.696Z,12.48
2023-11-23T21:44:39.536Z,11.07
2023-11-23T21:47:06.373Z,8.43
2023-11-23T21:49:33.177Z,10.25
2023-11-23T21:52:00.147Z,12.50
2023-11-23T21:54:28.778Z,12.52
2023-11-23T21:56:55.656Z,13.02
2023-11-23T21:59:23.287Z,13.32
2023-11-23T22:01:50.245Z,12.70
2023-11-23T22:04:17.162Z,13.55
2023-11-23T22:06:44.126Z,9.05
2023-11-23T22:09:12.259Z,9.20
2023-11-23T22:11:41.144Z,12.32
2023-11-23T22:14:07.944Z,14.65
2023-11-23T22:16:35.036Z,8.95
2023-11-23T22:19:02.120Z,11.30
2023-11-23T22:21:29.522Z,13.38
2023-11-23T22:23:56.610Z,13.38
2023-11-23T22:26:24.501Z,9.48
2023-11-23T22:28:52.157Z,10.95
2023-11-23T22:31:20.380Z,9.20
2023-11-23T22:33:47.532Z,8.18
2023-11-23T22:36:18.184Z,11.52
2023-11-23T22:38:51.463Z,10.73
2023-11-23T22:41:20.009Z,9.57
2023-11-23T22:43:48.723Z,10.15
2023-11-23T22:46:16.442Z,10.95
2023-11-23T22:48:43.356Z,5.78
2023-11-23T22:51:10.322Z,7.07
2023-11-23T22:53:37.178Z,9.07
2023-11-23T22:56:04.689Z,11.80
2023-11-23T22:58:31.839Z,13.10
2023-11-23T23:00:58.699Z,12.23
2023-11-23T23:03:25.726Z,12.32
2023-11-23T23:05:52.684Z,7.68
2023-11-23T23:08:20.587Z,11.13
2023-11-23T23:10:50.357Z,10.30
2023-11-23T23:13:17.255Z,11.07
2023-11-23T23:15:44.163Z,10.10
2023-11-23T23:18:12.820Z,11.27
2023-11-23T23:20:39.730Z,8.32
2023-11-23T23:23:06.710Z,7.32
2023-11-23T23:25:33.567Z,11.40
2023-11-23T23:28:00.451Z,12.75
2023-11-23T23:30:29.835Z,13.02
2023-11-23T23:32:56.748Z,12.68
2023-11-23T23:35:23.691Z,7.93
2023-11-23T23:37:50.789Z,8.70
2023-11-23T23:40:17.657Z,19.05
2023-11-23T23:42:44.730Z,9.27
2023-11-23T23:45:11.584Z,7.80
2023-11-23T23:47:39.573Z,8.10
2023-11-23T23:50:07.400Z,18.70
2023-11-23T23:52:34.489Z,14.75
2023-11-23T23:55:01.587Z,14.35
2023-11-23T23:57:28.498Z,10.75
2023-11-23T23:59:55.921Z,11.23
